createdAt,value
2023-04-18T09:08:44.947Z,5.85
2023-04-18T09:11:29.000Z,7.03
2023-04-18T09:14:10.764Z,5.95
2023-04-18T09:16:47.425Z,5.95
2023-04-18T09:19:18.992Z,6.32
2023-04-18T09:21:47.409Z,6.07
2023-04-18T09:24:26.538Z,5.72
2023-04-18T09:26:56.162Z,5.30
2023-04-18T09:29:41.830Z,5.68
2023-04-18T09:32:09.891Z,5.00
2023-04-18T09:34:42.704Z,5.65
2023-04-18T09:37:12.294Z,5.40
2023-04-18T09:39:42.719Z,5.97
2023-04-18T09:42:11.131Z,4.90
2023-04-18T09:44:57.590Z,4.78
2023-04-18T09:47:27.005Z,4.20
2023-04-18T09:49:54.602Z,5.20
2023-04-18T09:52:25.152Z,5.00
2023-04-18T09:54:58.825Z,5.47
2023-04-18T09:57:31.507Z,5.03
2023-04-18T10:00:01.941Z,5.95
2023-04-18T10:02:39.169Z,5.55
2023-04-18T10:05:08.447Z,5.10
2023-04-18T10:07:37.052Z,4.95
2023-04-18T10:10:04.712Z,6.13
2023-04-18T10:12:33.562Z,4.97
2023-04-18T10:15:01.393Z,5.45
2023-04-18T10:17:29.551Z,5.38
2023-04-18T10:20:16.531Z,4.38
2023-04-18T10:22:44.550Z,4.78
2023-04-18T10:25:11.856Z,5.63
2023-04-18T10:27:48.868Z,4.25
2023-04-18T10:30:17.096Z,5.60
2023-04-18T10:32:47.732Z,4.38
2023-04-18T10:35:15.252Z,6.70
2023-04-18T10:37:59.956Z,5.13
2023-04-18T10:40:34.773Z,7.35
2023-04-18T10:43:02.568Z,7.53
2023-04-18T10:45:33.673Z,7.28
2023-04-18T10:48:32.897Z,4.80
2023-04-18T10:51:14.229Z,4.63
2023-04-18T10:53:49.048Z,8.30
2023-04-18T10:56:16.936Z,4.60
2023-04-18T10:58:50.250Z,4.80
2023-04-18T11:01:28.619Z,4.85
2023-04-18T11:04:01.808Z,4.90
2023-04-18T11:06:30.559Z,4.72
2023-04-18T11:09:14.375Z,5.93
2023-04-18T11:11:42.604Z,4.57
2023-04-18T11:14:10.758Z,5.28
2023-04-18T11:16:41.124Z,5.38
2023-04-18T11:19:23.537Z,4.38
2023-04-18T11:21:51.981Z,5.97
2023-04-18T11:24:23.646Z,3.90
2023-04-18T11:26:56.192Z,6.53
2023-04-18T11:29:26.555Z,4.60
2023-04-18T11:31:56.879Z,3.92
2023-04-18T11:34:30.908Z,3.60
2023-04-18T11:36:58.391Z,2.42
2023-04-18T11:39:26.109Z,2.45
2023-04-18T11:41:56.587Z,4.22
2023-04-18T11:44:25.272Z,3.10
2023-04-18T11:46:53.585Z,3.83
2023-04-18T11:49:28.701Z,2.47
2023-04-18T11:51:56.621Z,3.05
2023-04-18T11:54:41.509Z,4.88
2023-04-18T11:57:29.215Z,4.38
2023-04-18T11:59:59.371Z,3.22
2023-04-18T12:02:39.898Z,2.90
2023-04-18T12:05:08.232Z,2.70
2023-04-18T12:07:44.669Z,3.30
2023-04-18T12:10:29.779Z,2.85
2023-04-18T12:13:01.300Z,2.95
2023-04-18T12:15:30.194Z,3.13
2023-04-18T12:18:00.655Z,2.30
2023-04-18T12:20:38.265Z,2.47
2023-04-18T12:23:06.283Z,2.53
2023-04-18T12:25:34.993Z,3.17
2023-04-18T12:28:04.867Z,2.75
2023-04-18T12:30:37.468Z,2.40
2023-04-18T12:33:05.300Z,2.50
2023-04-18T12:35:33.095Z,2.20
2023-04-18T12:38:02.478Z,2.00
2023-04-18T12:40:30.516Z,2.35
2023-04-18T12:42:57.751Z,3.10
2023-04-18T12:45:26.017Z,2.58
2023-04-18T12:47:53.949Z,2.47
2023-04-18T12:50:24.055Z,2.70
2023-04-18T12:52:53.680Z,2.80
2023-04-18T12:55:22.933Z,2.78
2023-04-18T12:57:56.655Z,2.40
2023-04-18T13:00:26.510Z,2.25
2023-04-18T13:02:53.970Z,2.90
2023-04-18T13:05:23.852Z,2.63
2023-04-18T13:07:58.642Z,1.90
2023-04-18T13:10:29.680Z,2.53
2023-04-18T13:12:57.231Z,2.50
2023-04-18T13:15:25.049Z,2.38
2023-04-18T13:17:52.454Z,2.17
2023-04-18T13:20:20.560Z,2.33
2023-04-18T13:22:48.172Z,2.00
2023-04-18T13:25:16.847Z,2.30
2023-04-18T13:27:46.466Z,2.20
2023-04-18T13:30:14.146Z,2.50
2023-04-18T13:32:43.059Z,2.40
2023-04-18T13:35:11.415Z,2.35
2023-04-18T13:37:39.586Z,2.10
2023-04-18T13:40:08.157Z,1.98
2023-04-18T13:42:37.288Z,2.60
2023-04-18T13:45:07.918Z,2.45
2023-04-18T13:47:35.321Z,2.88
2023-04-18T13:50:02.923Z,4.47
2023-04-18T13:52:30.329Z,3.47
2023-04-18T13:54:58.003Z,3.42
2023-04-18T13:57:25.364Z,4.20
2023-04-18T13:59:52.951Z,4.07
2023-04-18T14:02:22.881Z,3.47
2023-04-18T14:04:52.281Z,3.55
2023-04-18T14:07:19.642Z,3.63
2023-04-18T14:09:48.454Z,4.18
2023-04-18T14:12:15.983Z,3.45
2023-04-18T14:14:43.540Z,3.47
2023-04-18T14:17:10.875Z,4.18
2023-04-18T14:19:38.576Z,4.80
2023-04-18T14:22:07.378Z,3.92
2023-04-18T14:24:38.045Z,4.07
2023-04-18T14:27:10.449Z,5.78
2023-04-18T14:29:38.306Z,8.38
2023-04-18T14:32:07.201Z,4.18
2023-04-18T14:34:36.637Z,8.73
2023-04-18T14:37:05.055Z,7.53
2023-04-18T14:39:32.726Z,4.45
2023-04-18T14:41:59.987Z,5.45
2023-04-18T14:44:28.189Z,4.90
2023-04-18T14:46:55.719Z,4.15
2023-04-18T14:49:23.544Z,6.47
2023-04-18T14:51:51.082Z,5.53
2023-04-18T14:54:19.304Z,4.30
2023-04-18T14:56:46.573Z,3.75
2023-04-18T14:59:16.718Z,5.30
2023-04-18T15:01:44.616Z,7.15
2023-04-18T15:04:12.860Z,5.70
2023-04-18T15:06:42.165Z,4.15
2023-04-18T15:09:09.735Z,5.30
2023-04-18T15:11:38.528Z,3.80
2023-04-18T15:14:06.232Z,3.25
2023-04-18T15:16:35.419Z,3.88
2023-04-18T15:19:03.029Z,3.80
2023-04-18T15:21:30.357Z,3.35
2023-04-18T15:23:59.184Z,3.95
2023-04-18T15:26:27.246Z,4.60
2023-04-18T15:28:55.500Z,5.43
2023-04-18T15:31:24.072Z,5.03
2023-04-18T15:33:52.071Z,4.97
2023-04-18T15:36:19.605Z,4.43
2023-04-18T15:38:49.903Z,3.70
2023-04-18T15:41:17.158Z,4.32
2023-04-18T15:43:45.825Z,4.97
2023-04-18T15:46:13.117Z,5.03
2023-04-18T15:48:40.815Z,5.95
2023-04-18T15:51:08.403Z,4.40
2023-04-18T15:53:36.070Z,4.20
2023-04-18T15:56:04.393Z,4.80
2023-04-18T15:58:35.478Z,6.25
2023-04-18T16:01:03.530Z,5.50
2023-04-18T16:03:31.996Z,3.88
2023-04-18T16:05:59.581Z,5.38
2023-04-18T16:08:27.293Z,5.07
2023-04-18T16:10:54.669Z,4.43
2023-04-18T16:13:22.215Z,4.55
2023-04-18T16:15:49.769Z,5.97
2023-04-18T16:18:17.548Z,5.80
2023-04-18T16:20:45.056Z,5.10
2023-04-18T16:23:12.986Z,5.03
2023-04-18T16:25:40.441Z,6.22
2023-04-18T16:28:08.396Z,6.72
2023-04-18T16:30:36.091Z,5.47
2023-04-18T16:33:04.157Z,4.60
2023-04-18T16:35:32.075Z,6.03
2023-04-18T16:38:00.142Z,4.53
2023-04-18T16:40:30.739Z,6.20
2023-04-18T16:42:59.061Z,7.47
2023-04-18T16:45:26.693Z,8.80
2023-04-18T16:47:55.198Z,7.43
2023-04-18T16:50:23.081Z,12.45
2023-04-18T16:52:50.819Z,10.52
2023-04-18T16:55:18.449Z,7.30
2023-04-18T16:57:47.454Z,7.82
2023-04-18T17:00:15.257Z,3.80
2023-04-18T17:02:44.121Z,3.28
2023-04-18T17:05:12.136Z,5.13
2023-04-18T17:07:40.066Z,14.90
2023-04-18T17:10:09.963Z,14.27
2023-04-18T17:12:38.047Z,18.70
2023-04-18T17:15:05.957Z,11.45
2023-04-18T17:17:33.803Z,10.00
2023-04-18T17:20:01.556Z,10.10
2023-04-18T17:22:29.704Z,9.45
2023-04-18T17:24:57.050Z,8.80
2023-04-18T17:27:24.764Z,9.05
2023-04-18T17:29:52.066Z,8.25
2023-04-18T17:32:19.847Z,7.00
2023-04-18T17:34:47.434Z,7.57
2023-04-18T17:44:51.125Z,6.80
2023-04-18T17:47:18.799Z,7.97
2023-04-18T17:49:46.254Z,7.93
2023-04-18T17:52:13.895Z,9.10
2023-04-18T17:54:41.419Z,8.73
2023-04-18T17:57:09.020Z,30.17
2023-04-18T17:59:37.938Z,35.58
2023-04-18T18:02:05.921Z,70.75
2023-04-18T18:04:33.478Z,65.72
2023-04-18T18:07:01.444Z,61.67
2023-04-18T18:09:28.674Z,72.28
2023-04-18T18:11:57.147Z,58.22
2023-04-18T18:14:24.742Z,41.53
2023-04-18T18:16:52.470Z,45.08
2023-04-18T18:19:21.142Z,44.78
2023-04-18T18:21:49.004Z,46.47
2023-04-18T18:24:16.570Z,43.92
2023-04-18T18:26:44.594Z,38.72
2023-04-18T18:40:32.613Z,35.22
2023-04-18T18:43:01.075Z,39.40
2023-04-18T18:45:28.572Z,43.17
2023-04-18T18:47:56.315Z,66.22
2023-04-18T18:50:24.601Z,86.47
2023-04-18T18:52:52.604Z,84.75
2023-04-18T18:55:20.107Z,69.47
2023-04-18T18:57:48.162Z,48.83
2023-04-18T19:00:16.648Z,43.83
2023-04-18T19:02:46.623Z,43.20
2023-04-18T19:05:14.241Z,39.72
2023-04-18T19:07:42.694Z,42.65
2023-04-18T19:10:10.978Z,45.63
2023-04-18T19:12:38.716Z,43.83
2023-04-18T19:15:07.970Z,49.83
2023-04-18T19:17:36.052Z,44.47
2023-04-18T19:20:03.889Z,41.08
2023-04-18T19:22:31.903Z,38.15
2023-04-18T19:25:01.200Z,37.28
2023-04-18T19:27:29.136Z,37.38
2023-04-18T19:29:56.505Z,35.33
2023-04-18T19:32:24.533Z,30.83
2023-04-18T19:34:53.374Z,29.15
2023-04-18T19:37:21.383Z,36.53
2023-04-18T19:39:52.095Z,34.50
2023-04-18T19:42:20.773Z,30.92
2023-04-18T19:44:48.324Z,29.08
2023-04-18T19:47:16.104Z,24.08
2023-04-18T19:49:44.738Z,29.13
2023-04-18T19:52:12.651Z,33.17
2023-04-18T19:54:40.165Z,34.28
2023-04-18T19:57:08.366Z,38.17
2023-04-18T19:59:36.033Z,39.40
2023-04-18T20:02:05.912Z,38.70
2023-04-18T20:04:37.401Z,42.75
2023-04-18T20:07:05.898Z,42.72
2023-04-18T20:09:36.109Z,43.25
2023-04-18T20:12:04.065Z,47.47
2023-04-18T20:14:32.540Z,47.65
2023-04-18T20:17:00.502Z,51.38
2023-04-18T20:19:29.980Z,48.70
2023-04-18T20:21:57.906Z,51.38
2023-04-18T20:24:28.399Z,52.33
2023-04-18T20:26:59.642Z,47.75
2023-04-18T20:29:27.099Z,45.38
2023-04-18T20:31:54.930Z,42.63
2023-04-18T20:34:22.475Z,74.03
2023-04-18T20:36:52.700Z,58.60
2023-04-18T20:39:23.205Z,42.13
2023-04-18T20:41:51.627Z,40.22
2023-04-18T20:44:22.227Z,41.58
2023-04-18T20:46:52.283Z,48.00
2023-04-18T20:49:19.991Z,49.88
2023-04-18T20:51:50.536Z,36.88
2023-04-18T20:54:18.083Z,36.20
2023-04-18T20:56:46.100Z,31.13
2023-04-18T20:59:13.557Z,34.53
2023-04-18T21:01:41.513Z,43.35
2023-04-18T21:04:09.030Z,51.58
2023-04-18T21:06:36.953Z,36.92
2023-04-18T21:09:04.436Z,36.50
2023-04-18T21:11:32.265Z,34.08
2023-04-18T21:13:59.770Z,29.40
2023-04-18T21:16:27.791Z,27.85
2023-04-18T21:18:55.518Z,26.63
2023-04-18T21:21:23.294Z,27.90
2023-04-18T21:23:50.885Z,31.58
2023-04-18T21:26:19.137Z,29.65
2023-04-18T21:28:53.600Z,29.73
2023-04-18T21:31:21.313Z,32.83
2023-04-18T21:33:52.328Z,34.70
2023-04-18T21:36:20.349Z,30.88
2023-04-18T21:38:47.804Z,28.23
2023-04-18T21:41:17.078Z,25.35
2023-04-18T21:43:44.593Z,25.08
2023-04-18T21:46:12.853Z,27.23
2023-04-18T21:48:41.121Z,24.73
2023-04-18T21:51:10.583Z,25.23
2023-04-18T21:53:39.132Z,26.08
2023-04-18T21:56:09.745Z,25.83
2023-04-18T21:58:39.478Z,27.02
2023-04-18T22:01:07.359Z,27.55
2023-04-18T22:03:35.210Z,25.80
2023-04-18T22:06:03.065Z,30.48
2023-04-18T22:08:31.299Z,26.20
2023-04-18T22:11:00.490Z,31.35
2023-04-18T22:13:34.901Z,33.05
2023-04-18T22:16:03.756Z,32.45
2023-04-18T22:18:34.145Z,42.30
2023-04-18T22:21:03.559Z,38.67
2023-04-18T22:23:30.991Z,37.65
2023-04-18T22:26:01.799Z,40.72
2023-04-18T22:28:29.450Z,27.92
2023-04-18T22:30:57.309Z,31.70
2023-04-18T22:33:24.892Z,28.50
2023-04-18T22:35:52.858Z,28.20
2023-04-18T22:38:20.130Z,26.77
2023-04-18T22:40:47.770Z,25.10
2023-04-18T22:43:14.926Z,26.35
2023-04-18T22:45:42.453Z,26.58
2023-04-18T22:48:12.416Z,25.42
2023-04-18T22:50:44.883Z,28.60
2023-04-18T22:53:12.475Z,25.60
2023-04-18T22:55:44.131Z,26.38
2023-04-18T22:58:12.080Z,25.23
2023-04-18T23:00:39.792Z,24.25
2023-04-18T23:03:07.253Z,25.38
2023-04-18T23:05:35.543Z,26.50
2023-04-18T23:08:02.894Z,24.73
2023-04-18T23:10:30.520Z,27.63
2023-04-18T23:12:57.993Z,24.38
2023-04-18T23:15:26.501Z,25.02
2023-04-18T23:17:54.378Z,25.13
2023-04-18T23:20:22.392Z,25.45
2023-04-18T23:35:04.301Z,24.27
2023-04-18T23:37:32.039Z,30.55
2023-04-18T23:40:02.786Z,29.20
2023-04-18T23:42:30.388Z,28.17
2023-04-18T23:44:59.086Z,25.20
2023-04-18T23:47:26.690Z,26.83
2023-04-18T23:49:53.945Z,24.95
2023-04-18T23:52:21.528Z,31.77
2023-04-18T23:54:51.986Z,30.60
2023-04-18T23:57:22.640Z,33.17
2023-04-18T23:59:49.837Z,30.63
